Time;durP1;ratioP1;P1;durP2;ratioP2;P2;SDS_P1;SDS_P2;PMS_P1;PMS_P2;Temp;Humidity;BMP_temperature;BMP_pressure;BME280_temperature;BME280_humidity;BME280_pressure;Samples;Min_cycle;Max_cycle;Signal;HPM_P1;HPM_P2
2023/10/13 00:01:18;;;;;;;;;;;;;;;8.27;100.00;99611.47;4942716;29;20374;-85
2023/10/13 00:03:43;;;;;;;;;;;;;;;8.28;100.00;99615.81;4940842;28;19930;-81
2023/10/13 00:06:08;;;;;;;;;;;;;;;8.28;100.00;99605.25;4943913;28;19922;-85
2023/10/13 00:08:34;;;;;;;;;;;;;;;8.27;100.00;99608.84;4942531;28;20455;-84
2023/10/13 00:11:02;;;;;;;;;;;;;;;8.26;100.00;99610.59;4942395;28;19919;-84
2023/10/13 00:13:29;;;;;;;;;;;;;;;8.26;100.00;99607.09;4943281;29;20278;-84
2023/10/13 00:15:57;;;;;;;;;;;;;;;8.26;100.00;99607.09;4944169;29;19986;-84
2023/10/13 00:18:27;;;;;;;;;;;;;;;8.25;100.00;99606.25;4943207;28;20293;-84
2023/10/13 00:20:56;;;;;;;;;;;;;;;8.25;100.00;99610.66;4944934;29;19951;-89
2023/10/13 05:44:33;;;;;;;;;;;;;;;7.92;100.00;99344.50;4966768;28;20417;-82
2023/10/13 05:47:22;;;;;;;;;;;;;;;7.91;100.00;99345.41;4965787;28;19930;-82
2023/10/13 05:49:50;;;;;;;;;;;;;;;7.94;100.00;99359.31;4965961;28;19951;-83
2023/10/13 05:52:19;;;;;;;;;;;;;;;7.92;100.00;99355.03;4966029;28;19928;-83
2023/10/13 06:30:17;;;;;;;;;;;;;;;7.92;100.00;99363.81;4966727;28;19926;-86
2023/10/13 06:32:42;;;;;;;;;;;;;;;7.91;100.00;99363.88;4965291;28;19922;-83
2023/10/13 06:35:08;;;;;;;;;;;;;;;7.92;100.00;99355.03;4964886;28;19919;-82
2023/10/13 06:37:34;;;;;;;;;;;;;;;7.91;100.00;99361.22;4947420;28;19918;-83
2023/10/13 06:40:48;;;;;;;;;;;;;;;7.92;100.00;99360.31;4965437;28;19926;-86
2023/10/13 06:42:46;;;;;;;;;;;;;;;7.94;100.00;99363.75;4950318;28;19919;-83
2023/10/13 06:45:11;;;;;;;;;;;;;;;7.92;100.00;99370.88;4964616;28;19918;-83
2023/10/13 06:47:43;;;;;;;;;;;;;;;7.92;100.00;99373.50;4965341;28;20006;-83
2023/10/13 06:50:19;;;;;;;;;;;;;;;7.91;100.00;99364.72;4964626;28;19914;-83
2023/10/13 06:52:46;;;;;;;;;;;;;;;7.91;100.00;99374.41;4965116;28;20377;-83
2023/10/13 06:55:17;;;;;;;;;;;;;;;7.92;100.00;99377.00;4964653;28;19919;-82
2023/10/13 06:57:43;;;;;;;;;;;;;;;7.93;100.00;99380.47;4963309;28;20021;-83
2023/10/13 07:00:19;;;;;;;;;;;;;;;7.92;100.00;99370.88;4964408;28;20286;-83
2023/10/13 07:02:46;;;;;;;;;;;;;;;7.93;100.00;99373.44;4964844;28;19929;-83
2023/10/13 07:05:13;;;;;;;;;;;;;;;7.93;100.00;99367.28;4964420;28;19922;-83
2023/10/13 07:07:39;;;;;;;;;;;;;;;7.93;100.00;99362.91;4965093;28;19924;-83
2023/10/13 07:10:08;;;;;;;;;;;;;;;7.91;100.00;99370.00;4964608;28;19922;-83
2023/10/13 07:12:33;;;;;;;;;;;;;;;7.93;100.00;99375.22;4963249;28;19926;-83
2023/10/13 07:38:16;;;;;;;;;;;;;;;7.90;100.00;99381.47;5114653;23;20292;-86
2023/10/13 07:40:42;;;;;;;;;;;;;;;7.93;100.00;99378.72;4965871;28;19922;-85
2023/10/13 07:43:10;;;;;;;;;;;;;;;7.90;100.00;99378.00;4965412;28;19918;-83
2023/10/13 07:45:40;;;;;;;;;;;;;;;7.88;100.00;99383.31;4983206;28;19921;-83
2023/10/13 07:48:21;;;;;;;;;;;;;;;7.91;100.00;99384.97;5110210;27;19920;-90
2023/10/13 07:50:47;;;;;;;;;;;;;;;7.90;100.00;99381.47;5108522;28;19920;-83
2023/10/13 07:53:24;;;;;;;;;;;;;;;7.92;100.00;99374.34;5108580;28;19961;-82
2023/10/13 07:55:56;;;;;;;;;;;;;;;7.92;100.00;99365.59;5109879;28;20262;-83
2023/10/13 07:58:27;;;;;;;;;;;;;;;7.92;100.00;99355.03;5109737;28;19939;-83
2023/10/13 08:03:35;;;;;;;;;;;;;;;7.93;100.00;99356.75;5108918;28;19916;-83
2023/10/13 08:06:19;;;;;;;;;;;;;;;7.94;100.00;99353.19;5108300;28;19916;-83
2023/10/13 08:08:49;;;;;;;;;;;;;;;7.94;100.00;99353.19;5109633;28;20475;-89
2023/10/13 08:13:53;;;;;;;;;;;;;;;7.96;100.00;99351.34;5109635;28;19916;-83
2023/10/13 08:16:22;;;;;;;;;;;;;;;7.96;100.00;99356.63;5109159;28;19916;-85
2023/10/13 08:18:51;;;;;;;;;;;;;;;7.96;100.00;99346.94;5108998;28;19927;-85
2023/10/13 08:21:17;;;;;;;;;;;;;;;7.99;100.00;99348.59;5107465;28;20174;-85
2023/10/13 08:24:06;;;;;;;;;;;;;;;7.97;100.00;99350.44;5109042;28;19924;-85
2023/10/13 08:29:05;;;;;;;;;;;;;;;7.99;100.00;99340.69;5109584;28;19928;-85
2023/10/13 08:31:30;;;;;;;;;;;;;;;7.97;100.00;99335.47;5082309;28;19920;-85
2023/10/13 08:34:06;;;;;;;;;;;;;;;7.98;100.00;99339.81;5090930;28;20362;-84
2023/10/13 08:36:32;;;;;;;;;;;;;;;8.02;100.00;99324.72;5107712;28;19920;-85
2023/10/13 08:38:57;;;;;;;;;;;;;;;8.02;100.00;99324.72;5109103;28;19968;-85
2023/10/13 08:43:53;;;;;;;;;;;;;;;8.06;100.00;99328.97;5109061;28;19919;-85
2023/10/13 08:46:28;;;;;;;;;;;;;;;8.01;100.00;99336.22;5108138;28;19920;-85
2023/10/13 08:49:08;;;;;;;;;;;;;;;8.03;100.00;99330.88;5108773;28;19968;-85
2023/10/13 08:51:43;;;;;;;;;;;;;;;8.00;100.00;99332.69;5107436;28;19916;-85
2023/10/13 08:54:19;;;;;;;;;;;;;;;8.04;100.00;99340.50;5108749;28;19916;-85
2023/10/13 08:56:56;;;;;;;;;;;;;;;8.00;100.00;99323.94;5108614;28;19920;-83
2023/10/13 08:59:38;;;;;;;;;;;;;;;8.00;100.00;99330.06;5096504;28;19924;-84
2023/10/13 09:02:21;;;;;;;;;;;;;;;8.01;100.00;99325.66;5094914;28;19954;-83
2023/10/13 09:04:47;;;;;;;;;;;;;;;8.01;100.00;99328.31;5094630;28;19927;-83
2023/10/13 09:07:16;;;;;;;;;;;;;;;8.02;100.00;99331.78;5093519;28;19920;-82
2023/10/13 09:12:35;;;;;;;;;;;;;;;8.01;100.00;99333.59;5094769;28;19916;-83
2023/10/13 09:17:44;;;;;;;;;;;;;;;8.03;100.00;99328.25;5094001;28;20393;-83
2023/10/13 09:25:35;;;;;;;;;;;;;;;8.03;100.00;99330.88;5094459;28;19916;-84
2023/10/13 09:28:00;;;;;;;;;;;;;;;8.04;100.00;99319.38;5094574;28;19916;-84
2023/10/13 09:30:30;;;;;;;;;;;;;;;8.03;100.00;99315.06;5094555;28;19916;-83
2023/10/13 09:33:02;;;;;;;;;;;;;;;8.03;100.00;99310.63;5076120;28;19924;-84
2023/10/13 09:35:28;;;;;;;;;;;;;;;8.02;100.00;99318.59;5094243;28;20401;-82
2023/10/13 09:37:57;;;;;;;;;;;;;;;8.03;100.00;99310.63;5074801;28;19920;-83
2023/10/13 09:40:25;;;;;;;;;;;;;;;8.04;100.00;99307.06;5093664;28;19923;-82
2023/10/13 09:42:52;;;;;;;;;;;;;;;8.08;100.00;99299.88;5093430;28;20351;-83
2023/10/13 09:45:17;;;;;;;;;;;;;;;8.06;100.00;99304.34;5094102;28;19955;-83
2023/10/13 09:47:47;;;;;;;;;;;;;;;8.07;100.00;99300.78;5075871;28;19976;-82
2023/10/13 09:50:24;;;;;;;;;;;;;;;8.09;100.00;99298.94;5093511;28;20378;-83
2023/10/13 09:52:52;;;;;;;;;;;;;;;8.09;100.00;99299.81;5092588;28;19923;-82
2023/10/13 09:55:26;;;;;;;;;;;;;;;8.10;100.00;99306.81;5093999;28;19916;-83
2023/10/13 09:57:57;;;;;;;;;;;;;;;8.11;100.00;99302.41;5093939;28;20290;-83
2023/10/13 10:00:46;;;;;;;;;;;;;;;8.08;100.00;99295.47;5093216;28;20003;-82
2023/10/13 10:03:30;;;;;;;;;;;;;;;8.07;100.00;99291.09;5093824;28;20375;-83
2023/10/13 10:06:18;;;;;;;;;;;;;;;8.07;100.00;99288.44;5091959;28;20337;-82
2023/10/13 10:08:50;;;;;;;;;;;;;;;8.08;100.00;99281.41;5092938;28;19916;-83
2023/10/13 10:11:34;;;;;;;;;;;;;;;8.08;100.00;99277.00;5092012;28;19927;-83
2023/10/13 10:14:05;;;;;;;;;;;;;;;8.09;100.00;99275.19;5093669;28;20285;-82
2023/10/13 10:16:46;;;;;;;;;;;;;;;8.10;100.00;99269.84;5093466;28;19963;-83
2023/10/13 10:19:11;;;;;;;;;;;;;;;8.10;100.00;99275.13;5093364;28;19916;-84
2023/10/13 10:21:37;;;;;;;;;;;;;;;8.08;100.00;99266.44;5092096;28;19974;-83
2023/10/13 10:24:13;;;;;;;;;;;;;;;8.09;100.00;99273.44;5093433;28;19921;-83
2023/10/13 10:26:38;;;;;;;;;;;;;;;8.08;100.00;99266.44;5092992;28;19920;-83
2023/10/13 10:29:11;;;;;;;;;;;;;;;8.11;100.00;99268.09;5093280;28;19923;-85
2023/10/13 10:31:41;;;;;;;;;;;;;;;8.11;100.00;99271.59;5092576;28;20038;-83
2023/10/13 10:34:13;;;;;;;;;;;;;;;8.06;100.00;99263.00;5092554;28;19982;-83
2023/10/13 10:36:42;;;;;;;;;;;;;;;8.11;100.00;99266.31;5091410;28;19920;-88
2023/10/13 10:39:09;;;;;;;;;;;;;;;8.08;100.00;99261.16;5093228;28;20536;-83
2023/10/13 10:47:31;;;;;;;;;;;;;;;8.16;100.00;99253.78;5083566;28;20068;-82
2023/10/13 10:50:00;;;;;;;;;;;;;;;8.14;100.00;99247.72;5089500;28;19926;-84
2023/10/13 10:52:27;;;;;;;;;;;;;;;8.20;100.00;99249.25;5089202;28;19954;-82
2023/10/13 10:54:59;;;;;;;;;;;;;;;8.18;100.00;99241.41;5092647;28;19970;-83
2023/10/13 10:57:37;;;;;;;;;;;;;;;8.21;100.00;99247.47;5092415;28;19959;-83
2023/10/13 11:00:12;;;;;;;;;;;;;;;8.18;100.00;99238.75;5092600;28;19920;-84
2023/10/13 11:02:38;;;;;;;;;;;;;;;8.19;100.00;99236.97;5092031;28;19922;-83
2023/10/13 11:05:05;;;;;;;;;;;;;;;8.19;100.00;99232.53;5092580;28;20006;-84
2023/10/13 11:07:31;;;;;;;;;;;;;;;8.18;100.00;99230.84;5091357;28;19916;-83
2023/10/13 11:10:07;;;;;;;;;;;;;;;8.21;100.00;99224.56;5074186;28;19917;-83
2023/10/13 11:12:34;;;;;;;;;;;;;;;8.21;100.00;99223.72;5092672;28;19924;-83
2023/10/13 11:15:00;;;;;;;;;;;;;;;8.20;100.00;99214.94;5090529;28;20070;-83
2023/10/13 11:17:33;;;;;;;;;;;;;;;8.20;100.00;99212.31;5092570;28;20003;-84
2023/10/13 11:20:15;;;;;;;;;;;;;;;8.17;100.00;99213.28;5092460;28;19920;-83
2023/10/13 11:22:46;;;;;;;;;;;;;;;8.18;100.00;99204.44;5088938;28;20321;-82
2023/10/13 11:25:19;;;;;;;;;;;;;;;8.17;100.00;99202.72;5073696;28;19931;-83
2023/10/13 11:30:20;;;;;;;;;;;;;;;8.22;100.00;99199.00;5092388;28;19916;-83
2023/10/13 11:32:46;;;;;;;;;;;;;;;8.18;100.00;99188.63;5088283;28;19927;-83
2023/10/13 11:35:48;;;;;;;;;;;;;;;8.18;100.00;99193.91;5091434;28;19947;-83
2023/10/13 11:38:11;;;;;;;;;;;;;;;8.23;100.00;99182.25;5087645;28;20383;-83
2023/10/13 11:43:23;;;;;;;;;;;;;;;8.22;100.00;99172.63;5090270;28;20409;-83
2023/10/13 11:48:36;;;;;;;;;;;;;;;8.23;100.00;99163.78;5090634;28;20034;-83
2023/10/13 11:51:07;;;;;;;;;;;;;;;8.20;100.00;99159.53;5090499;28;20260;-82
2023/10/13 11:53:32;;;;;;;;;;;;;;;8.22;100.00;99156.78;5071247;28;19963;-82
2023/10/13 11:55:58;;;;;;;;;;;;;;;8.23;100.00;99156.72;5081081;28;19963;-82
2023/10/13 11:58:23;;;;;;;;;;;;;;;8.22;100.00;99141.84;5088760;28;20424;-82
2023/10/13 12:00:53;;;;;;;;;;;;;;;8.22;100.00;99144.47;5073830;28;19915;-83
2023/10/13 12:08:51;;;;;;;;;;;;;;;8.23;100.00;99143.53;5091391;28;19924;-83
2023/10/13 12:11:31;;;;;;;;;;;;;;;8.26;100.00;99139.91;5091947;28;19916;-83
2023/10/13 12:13:57;;;;;;;;;;;;;;;8.27;100.00;99131.06;5073659;28;20323;-83
2023/10/13 12:16:22;;;;;;;;;;;;;;;8.29;100.00;99137.13;5090986;28;19977;-83
2023/10/13 12:18:53;;;;;;;;;;;;;;;8.28;100.00;99124.84;5091613;28;20483;-83
2023/10/13 12:21:21;;;;;;;;;;;;;;;8.29;100.00;99127.44;5090320;28;20371;-83
2023/10/13 12:23:46;;;;;;;;;;;;;;;8.27;100.00;99124.00;5091776;28;19920;-83
2023/10/13 12:26:19;;;;;;;;;;;;;;;8.27;100.00;99112.59;5073537;28;20337;-83
2023/10/13 12:28:51;;;;;;;;;;;;;;;8.28;100.00;99117.81;5089774;28;19916;-83
2023/10/13 12:31:17;;;;;;;;;;;;;;;8.30;100.00;99113.31;5091177;28;20359;-83
2023/10/13 12:33:43;;;;;;;;;;;;;;;8.27;100.00;99112.59;5074821;28;20015;-83
2023/10/13 12:38:39;;;;;;;;;;;;;;;8.30;100.00;99092.19;5094659;28;19973;-83
2023/10/13 12:52:15;;;;;;;;;;;;;;;8.34;100.00;99075.31;5092954;28;20452;-83
2023/10/13 12:54:46;;;;;;;;;;;;;;;8.31;100.00;99064.88;5095060;28;19920;-83
2023/10/13 12:57:13;;;;;;;;;;;;;;;8.31;100.00;99058.72;5094990;28;20010;-83
2023/10/13 12:59:38;;;;;;;;;;;;;;;8.32;100.00;99057.81;5095240;28;19939;-83
2023/10/13 13:02:07;;;;;;;;;;;;;;;8.30;100.00;99049.13;5076786;28;20594;-83
2023/10/13 13:04:36;;;;;;;;;;;;;;;8.34;100.00;99048.91;5094904;28;19916;-83
2023/10/13 13:07:03;;;;;;;;;;;;;;;8.33;100.00;99043.69;5093448;28;19961;-83
2023/10/13 13:09:28;;;;;;;;;;;;;;;8.32;100.00;99039.34;5094972;28;19920;-84
2023/10/13 13:11:57;;;;;;;;;;;;;;;8.31;100.00;99037.63;5094819;28;19922;-83
2023/10/13 13:14:28;;;;;;;;;;;;;;;8.34;100.00;99034.84;5094851;28;19974;-83
2023/10/13 13:16:53;;;;;;;;;;;;;;;8.32;100.00;99031.41;5094678;28;19931;-83
2023/10/13 13:19:25;;;;;;;;;;;;;;;8.30;100.00;99034.13;5094717;28;19920;-83
2023/10/13 13:21:51;;;;;;;;;;;;;;;8.29;100.00;99021.00;5093503;28;19962;-83
2023/10/13 13:24:16;;;;;;;;;;;;;;;8.31;100.00;99027.06;5076647;28;19959;-83
2023/10/13 13:26:41;;;;;;;;;;;;;;;8.29;100.00;99021.84;5094508;28;20028;-83
2023/10/13 13:29:10;;;;;;;;;;;;;;;8.28;100.00;99017.50;5094406;28;19927;-82
2023/10/13 13:31:40;;;;;;;;;;;;;;;8.32;100.00;99016.44;5094409;28;20347;-83
2023/10/13 13:34:06;;;;;;;;;;;;;;;8.34;100.00;99014.59;5094336;28;20359;-83
2023/10/13 13:36:32;;;;;;;;;;;;;;;8.32;100.00;99016.44;5093092;28;19920;-83
2023/10/13 13:39:00;;;;;;;;;;;;;;;8.36;100.00;99009.25;5094322;28;19916;-83
2023/10/13 13:41:25;;;;;;;;;;;;;;;8.35;100.00;99010.16;5094318;28;19916;-83
2023/10/13 13:43:54;;;;;;;;;;;;;;;8.36;100.00;98996.91;5094307;28;19920;-83
2023/10/13 13:46:24;;;;;;;;;;;;;;;8.36;100.00;98994.25;5093995;28;20393;-83
2023/10/13 13:48:51;;;;;;;;;;;;;;;8.39;100.00;98998.50;5094257;28;19924;-83
2023/10/13 13:51:19;;;;;;;;;;;;;;;8.35;100.00;98987.25;5092778;28;19923;-83
2023/10/13 13:53:45;;;;;;;;;;;;;;;8.33;100.00;98975.06;5094066;28;19920;-83
2023/10/13 13:56:18;;;;;;;;;;;;;;;8.36;100.00;98972.28;5094033;28;20383;-83
2023/10/13 13:58:48;;;;;;;;;;;;;;;8.36;100.00;98964.38;5093390;28;19970;-83
2023/10/13 14:01:18;;;;;;;;;;;;;;;8.34;100.00;98958.28;5093397;28;20015;-83
2023/10/13 14:03:45;;;;;;;;;;;;;;;8.34;100.00;98955.66;5094006;28;19973;-87
2023/10/13 14:06:18;;;;;;;;;;;;;;;8.31;100.00;98951.38;5091008;28;19962;-83
2023/10/13 14:08:48;;;;;;;;;;;;;;;8.32;100.00;98942.53;5075163;28;19928;-84
2023/10/13 14:11:21;;;;;;;;;;;;;;;8.31;100.00;98932.91;5093564;28;20278;-83
2023/10/13 14:13:48;;;;;;;;;;;;;;;8.33;100.00;98935.47;5093601;28;19948;-86
2023/10/13 14:16:18;;;;;;;;;;;;;;;8.31;100.00;98932.03;5075444;28;19963;-83
2023/10/13 14:18:47;;;;;;;;;;;;;;;8.34;100.00;98926.63;5092943;28;19924;-83
2023/10/13 14:21:16;;;;;;;;;;;;;;;8.34;100.00;98921.34;5092661;28;19920;-84
2023/10/13 14:23:45;;;;;;;;;;;;;;;8.35;100.00;98920.41;5093439;28;20416;-84
2023/10/13 14:26:14;;;;;;;;;;;;;;;8.35;100.00;98917.78;5093077;28;19916;-83
2023/10/13 14:28:50;;;;;;;;;;;;;;;8.30;100.00;98907.44;5093398;28;19916;-83
2023/10/13 14:31:15;;;;;;;;;;;;;;;8.37;100.00;98902.72;5074082;28;20271;-89
2023/10/13 14:33:40;;;;;;;;;;;;;;;8.39;100.00;98902.63;5093418;28;19981;-86
2023/10/13 14:36:09;;;;;;;;;;;;;;;8.38;100.00;98891.25;5093112;28;19916;-84
2023/10/13 14:38:34;;;;;;;;;;;;;;;8.34;100.00;98894.94;5091610;28;19931;-83
2023/10/13 14:40:59;;;;;;;;;;;;;;;8.35;100.00;98891.38;5093095;28;19916;-83
2023/10/13 14:43:27;;;;;;;;;;;;;;;8.34;100.00;98889.66;5093170;28;20367;-84
2023/10/13 14:45:53;;;;;;;;;;;;;;;8.36;100.00;98891.31;5093063;28;19973;-82
2023/10/13 14:48:18;;;;;;;;;;;;;;;8.33;100.00;98886.19;5092894;28;19969;-83
2023/10/13 14:50:46;;;;;;;;;;;;;;;8.32;100.00;98886.25;5093003;28;20007;-84
2023/10/13 14:53:11;;;;;;;;;;;;;;;8.31;100.00;98871.31;5091472;28;20322;-83
2023/10/13 14:55:39;;;;;;;;;;;;;;;8.34;100.00;98872.06;5092639;28;19920;-83
2023/10/13 14:58:07;;;;;;;;;;;;;;;8.31;100.00;98872.22;5065354;28;19923;-83
2023/10/13 15:00:33;;;;;;;;;;;;;;;8.32;100.00;98870.41;5092867;28;19920;-83
2023/10/13 15:03:01;;;;;;;;;;;;;;;8.33;100.00;98853.66;5092671;28;19916;-83
2023/10/13 15:05:29;;;;;;;;;;;;;;;8.34;100.00;98868.53;5092886;28;19923;-83
2023/10/13 15:07:55;;;;;;;;;;;;;;;8.35;100.00;98854.44;5090443;28;19923;-83
2023/10/13 15:10:21;;;;;;;;;;;;;;;8.33;100.00;98848.38;5092548;28;20814;-83
2023/10/13 15:12:46;;;;;;;;;;;;;;;8.34;100.00;98857.97;5074506;28;19935;-83
2023/10/13 15:15:19;;;;;;;;;;;;;;;8.35;100.00;98846.50;5074288;28;19916;-83
2023/10/13 15:17:44;;;;;;;;;;;;;;;8.35;100.00;98852.63;5092521;28;19916;-81
2023/10/13 15:20:15;;;;;;;;;;;;;;;8.34;100.00;98839.50;5092477;28;19916;-84
2023/10/13 15:22:40;;;;;;;;;;;;;;;8.32;100.00;98838.75;5072912;28;20451;-83
2023/10/13 15:25:16;;;;;;;;;;;;;;;8.31;100.00;98834.38;5074196;28;19916;-85
2023/10/13 15:27:55;;;;;;;;;;;;;;;8.32;100.00;98830.81;5074580;28;19916;-93
2023/10/13 15:30:23;;;;;;;;;;;;;;;8.35;100.00;98833.31;5092334;28;19938;-84
2023/10/13 15:32:48;;;;;;;;;;;;;;;8.35;100.00;98828.03;5092329;28;19920;-82
2023/10/13 15:35:14;;;;;;;;;;;;;;;8.34;100.00;98823.66;5092150;28;19916;-83
2023/10/13 15:37:40;;;;;;;;;;;;;;;8.34;100.00;98823.66;5090992;28;19920;-83
2023/10/13 15:40:09;;;;;;;;;;;;;;;8.35;100.00;98828.03;5092037;28;20317;-83
2023/10/13 15:42:38;;;;;;;;;;;;;;;8.33;100.00;98827.25;5092101;28;19920;-83
2023/10/13 15:45:16;;;;;;;;;;;;;;;8.36;100.00;98821.84;5092076;28;19924;-81
2023/10/13 15:47:45;;;;;;;;;;;;;;;8.68;100.00;98814.09;5091516;28;19927;-80
2023/10/13 15:50:15;;;;;;;;;;;;;;;8.51;100.00;98809.69;5092142;28;19916;-85
2023/10/13 15:52:45;;;;;;;;;;;;;;;8.45;100.00;98805.56;5091005;28;19920;-82
2023/10/13 15:55:13;;;;;;;;;;;;;;;8.46;100.00;98807.28;5092132;28;20053;-85
2023/10/13 15:57:38;;;;;;;;;;;;;;;8.43;100.00;98807.41;5091093;28;19917;-83
2023/10/13 16:00:22;;;;;;;;;;;;;;;8.42;100.00;98808.31;5091929;28;19927;-83
2023/10/13 16:02:50;;;;;;;;;;;;;;;8.41;100.00;98805.75;5092089;28;20367;-83
2023/10/13 16:05:15;;;;;;;;;;;;;;;8.42;100.00;98804.81;5091864;28;19916;-83
2023/10/13 16:07:41;;;;;;;;;;;;;;;8.41;100.00;98796.06;5072680;28;19924;-83
2023/10/13 16:10:11;;;;;;;;;;;;;;;8.41;100.00;98796.06;5095685;28;19920;-83
2023/10/13 16:12:36;;;;;;;;;;;;;;;8.41;100.00;98798.69;5095970;28;19970;-82
2023/10/13 16:15:05;;;;;;;;;;;;;;;8.39;100.00;98786.50;5096023;28;19924;-82
2023/10/13 16:17:31;;;;;;;;;;;;;;;8.37;100.00;98787.41;5095891;28;19924;-82
2023/10/13 16:19:56;;;;;;;;;;;;;;;8.38;100.00;98783.00;5095814;28;19969;-82
2023/10/13 16:22:21;;;;;;;;;;;;;;;8.39;100.00;98789.97;5094477;28;19924;-82
2023/10/13 16:24:47;;;;;;;;;;;;;;;8.37;100.00;98786.56;5095598;28;19916;-82
2023/10/13 16:27:14;;;;;;;;;;;;;;;8.36;100.00;98783.09;5095527;28;20024;-80
2023/10/13 16:29:42;;;;;;;;;;;;;;;8.36;100.00;98787.53;5095805;28;20022;-82
2023/10/13 16:32:08;;;;;;;;;;;;;;;8.37;100.00;98783.94;5093963;28;19916;-82
2023/10/13 16:34:34;;;;;;;;;;;;;;;8.37;100.00;98784.78;5095540;28;19916;-82
2023/10/13 16:37:04;;;;;;;;;;;;;;;8.37;100.00;98778.66;5094323;28;19923;-85
2023/10/13 16:39:30;;;;;;;;;;;;;;;8.39;100.00;98789.97;5095336;28;19943;-81
2023/10/13 16:41:55;;;;;;;;;;;;;;;8.37;100.00;98787.41;5095477;28;20363;-84
2023/10/13 16:44:26;;;;;;;;;;;;;;;8.37;100.00;98787.41;5095453;28;19977;-82
2023/10/13 16:46:56;;;;;;;;;;;;;;;8.39;100.00;98789.97;5095165;28;19920;-82
2023/10/13 16:49:21;;;;;;;;;;;;;;;8.40;100.00;98786.41;5095292;28;20002;-82
2023/10/13 16:51:47;;;;;;;;;;;;;;;8.39;100.00;98795.25;5093873;28;20018;-82
2023/10/13 16:54:12;;;;;;;;;;;;;;;8.39;100.00;98795.25;5093845;28;20367;-82
2023/10/13 16:56:41;;;;;;;;;;;;;;;8.36;100.00;98801.56;5095098;28;19924;-89
2023/10/13 16:59:06;;;;;;;;;;;;;;;8.37;100.00;98797.97;5095054;28;19961;-83
2023/10/13 17:01:32;;;;;;;;;;;;;;;8.35;100.00;98793.72;5095297;28;20018;-83
2023/10/13 17:03:58;;;;;;;;;;;;;;;8.35;100.00;98791.91;5095150;28;19916;-81
2023/10/13 17:06:23;;;;;;;;;;;;;;;8.38;100.00;98788.28;5075257;28;19920;-85
2023/10/13 17:08:48;;;;;;;;;;;;;;;8.39;100.00;98782.06;5076731;28;20039;-83
2023/10/13 17:11:19;;;;;;;;;;;;;;;8.37;100.00;98781.28;5094024;28;20033;-81
2023/10/13 17:13:48;;;;;;;;;;;;;;;8.37;100.00;98784.78;5094248;28;19916;-82
2023/10/13 17:16:17;;;;;;;;;;;;;;;8.40;100.00;98783.78;5094861;28;19927;-82
2023/10/13 17:18:43;;;;;;;;;;;;;;;8.39;100.00;98789.97;5093391;28;19920;-83
2023/10/13 17:21:17;;;;;;;;;;;;;;;8.38;100.00;98785.66;5093859;28;20319;-82
2023/10/13 17:23:56;;;;;;;;;;;;;;;8.39;100.00;98791.78;5094427;28;19920;-91
2023/10/13 17:26:26;;;;;;;;;;;;;;;8.40;100.00;98790.84;5094461;28;19935;-81
2023/10/13 17:28:55;;;;;;;;;;;;;;;8.42;100.00;98786.34;5094641;28;19916;-86
2023/10/13 17:31:20;;;;;;;;;;;;;;;8.41;100.00;98787.25;5094568;28;19927;-87
2023/10/13 17:33:46;;;;;;;;;;;;;;;8.42;100.00;98775.78;5094409;28;19916;-82
2023/10/13 17:36:11;;;;;;;;;;;;;;;8.46;100.00;98778.22;5094454;28;19917;-82
2023/10/13 17:38:37;;;;;;;;;;;;;;;8.45;100.00;98773.88;5074891;28;19927;-81
2023/10/13 17:41:06;;;;;;;;;;;;;;;8.41;100.00;98771.44;5094228;28;20049;-82
2023/10/13 17:43:34;;;;;;;;;;;;;;;8.42;100.00;98770.50;5094109;28;19927;-83
2023/10/13 17:46:03;;;;;;;;;;;;;;;8.41;100.00;98772.31;5075871;28;19952;-81
2023/10/13 17:48:32;;;;;;;;;;;;;;;8.42;100.00;98771.34;5092423;28;20043;-84
2023/10/13 17:50:57;;;;;;;;;;;;;;;8.41;100.00;98767.03;5094343;28;19916;-82
2023/10/13 17:53:22;;;;;;;;;;;;;;;8.41;100.00;98764.38;5092901;28;19927;-79
2023/10/13 17:55:48;;;;;;;;;;;;;;;8.41;100.00;98768.78;5094810;28;20010;-81
2023/10/13 17:58:14;;;;;;;;;;;;;;;8.42;100.00;98775.78;5093826;28;19955;-82
2023/10/13 18:00:39;;;;;;;;;;;;;;;8.41;100.00;98764.38;5075750;28;19920;-82
2023/10/13 18:03:06;;;;;;;;;;;;;;;8.41;100.00;98767.03;5075573;28;20446;-82
2023/10/13 18:05:35;;;;;;;;;;;;;;;8.45;100.00;98771.22;5093748;28;19916;-84
2023/10/13 18:08:10;;;;;;;;;;;;;;;8.42;100.00;98762.59;5091324;28;19977;-89
2023/10/13 18:10:43;;;;;;;;;;;;;;;8.44;100.00;98766.91;5075052;28;20014;-93
2023/10/13 18:13:10;;;;;;;;;;;;;;;8.43;100.00;98759.91;5075718;28;19963;-82
2023/10/13 18:15:35;;;;;;;;;;;;;;;8.44;100.00;98761.63;5074719;28;19928;-82
2023/10/13 18:18:01;;;;;;;;;;;;;;;8.45;100.00;98762.47;5091836;28;20306;-83
2023/10/13 18:20:28;;;;;;;;;;;;;;;8.45;100.00;98757.19;5076903;28;20025;-82
2023/10/13 18:22:53;;;;;;;;;;;;;;;8.47;100.00;98766.75;5092250;28;19927;-83
2023/10/13 18:25:24;;;;;;;;;;;;;;;8.51;100.00;98754.25;5092788;28;19920;-82
2023/10/13 18:27:52;;;;;;;;;;;;;;;8.50;100.00;98745.47;5091513;28;20479;-82
2023/10/13 18:30:21;;;;;;;;;;;;;;;8.51;100.00;98763.00;5092156;28;19928;-79
2023/10/13 18:32:47;;;;;;;;;;;;;;;8.51;100.00;98755.09;5090984;28;19920;-82
2023/10/13 18:35:18;;;;;;;;;;;;;;;8.54;100.00;98741.72;5073912;28;20018;-83
2023/10/13 18:37:44;;;;;;;;;;;;;;;8.58;100.00;98741.56;5090295;28;19927;-83
2023/10/13 18:40:12;;;;;;;;;;;;;;;8.59;100.00;98743.28;5092655;28;19924;-93
2023/10/13 18:42:51;;;;;;;;;;;;;;;8.62;100.00;98753.69;5091331;28;19916;-84
2023/10/13 18:45:19;;;;;;;;;;;;;;;8.57;100.00;98747.78;5074716;28;19924;-84
2023/10/13 18:47:45;;;;;;;;;;;;;;;8.57;100.00;98756.56;5093250;28;20014;-84
2023/10/13 18:50:10;;;;;;;;;;;;;;;8.59;100.00;98753.84;5091687;28;20011;-84
2023/10/13 18:52:35;;;;;;;;;;;;;;;8.63;100.00;98753.63;5072975;28;19928;-82
2023/10/13 18:55:03;;;;;;;;;;;;;;;8.61;100.00;98758.09;5090946;28;19952;-82
2023/10/13 18:57:28;;;;;;;;;;;;;;;8.58;100.00;98763.53;5072891;28;19944;-82
2023/10/13 18:59:54;;;;;;;;;;;;;;;8.63;100.00;98755.38;5092517;28;19947;-82
2023/10/13 19:02:19;;;;;;;;;;;;;;;8.60;100.00;98758.19;5092162;28;19920;-85
2023/10/13 19:04:45;;;;;;;;;;;;;;;8.61;100.00;98767.81;5074673;28;19920;-86
2023/10/13 19:07:10;;;;;;;;;;;;;;;8.64;100.00;98771.16;5088256;28;19927;-82
2023/10/13 19:09:38;;;;;;;;;;;;;;;8.62;100.00;98785.38;5074344;28;19920;-83
2023/10/13 19:12:05;;;;;;;;;;;;;;;8.66;100.00;98781.63;5074625;28;19920;-82
2023/10/13 19:14:32;;;;;;;;;;;;;;;8.65;100.00;98785.22;5082733;28;19916;-85
2023/10/13 19:16:57;;;;;;;;;;;;;;;8.62;100.00;98788.88;5090455;28;20007;-84
2023/10/13 19:19:25;;;;;;;;;;;;;;;8.62;100.00;98788.03;5074402;28;20073;-83
2023/10/13 19:21:51;;;;;;;;;;;;;;;8.64;100.00;98794.06;5072326;28;19920;-83
2023/10/13 19:24:19;;;;;;;;;;;;;;;8.62;100.00;98788.88;5092564;28;19962;-92
2023/10/13 19:26:45;;;;;;;;;;;;;;;8.60;100.00;98801.31;5091262;28;19924;-82
2023/10/13 19:29:10;;;;;;;;;;;;;;;8.64;100.00;98808.13;5090643;28;19924;-88
2023/10/13 19:31:35;;;;;;;;;;;;;;;8.63;100.00;98808.19;5092133;28;19916;-83
2023/10/13 19:34:02;;;;;;;;;;;;;;;8.60;100.00;98801.31;5074103;28;20389;-82
2023/10/13 19:36:27;;;;;;;;;;;;;;;8.61;100.00;98789.78;5072136;28;19927;-88
2023/10/13 19:38:53;;;;;;;;;;;;;;;8.59;100.00;98802.22;5074396;28;20351;-86
2023/10/13 19:41:25;;;;;;;;;;;;;;;8.59;100.00;98794.31;5089167;28;19989;-84
2023/10/13 19:43:51;;;;;;;;;;;;;;;8.60;100.00;98803.94;5105966;28;19920;-85
2023/10/13 19:46:18;;;;;;;;;;;;;;;8.62;100.00;98795.94;5090979;28;19926;-83
2023/10/13 19:48:43;;;;;;;;;;;;;;;8.56;100.00;98802.38;5090383;28;20602;-83
2023/10/13 19:51:12;;;;;;;;;;;;;;;8.59;100.00;98801.38;5091923;28;19924;-84
2023/10/13 19:53:41;;;;;;;;;;;;;;;8.58;100.00;98802.31;5090800;28;20424;-83
2023/10/13 19:56:10;;;;;;;;;;;;;;;8.60;100.00;98806.59;5073816;28;19916;-82
2023/10/13 19:58:39;;;;;;;;;;;;;;;8.59;100.00;98804.03;5091340;28;20377;-82
2023/10/13 20:01:11;;;;;;;;;;;;;;;8.58;100.00;98805.78;5072756;28;19970;-86
2023/10/13 20:03:40;;;;;;;;;;;;;;;8.61;100.00;98810.91;5072624;28;20393;-83
2023/10/13 20:06:12;;;;;;;;;;;;;;;8.60;100.00;98809.22;5091153;28;19920;-81
2023/10/13 20:08:38;;;;;;;;;;;;;;;8.61;100.00;98799.50;5089030;28;19927;-85
2023/10/13 20:11:12;;;;;;;;;;;;;;;8.60;100.00;98800.44;5090346;28;19916;-84